createdAt,value
2018-06-08T00:00:58.382Z,19.80
2018-06-08T00:02:00.614Z,19.80
2018-06-08T00:03:02.886Z,19.90
2018-06-08T00:04:05.125Z,19.80
2018-06-08T00:05:07.356Z,19.90
2018-06-08T00:06:09.578Z,19.90
2018-06-08T00:07:11.814Z,20.00
2018-06-08T00:08:14.035Z,19.90
2018-06-08T00:09:16.286Z,19.90
2018-06-08T00:10:18.522Z,20.00
2018-06-08T00:11:20.739Z,20.00
2018-06-08T00:12:22.957Z,20.10
2018-06-08T00:13:25.727Z,19.90
2018-06-08T00:14:27.937Z,20.00
2018-06-08T00:15:30.174Z,20.00
2018-06-08T00:16:32.390Z,20.00
2018-06-08T00:17:34.605Z,20.00
2018-06-08T00:18:42.810Z,19.90
2018-06-08T00:19:45.044Z,20.00
2018-06-08T00:20:47.266Z,19.90
2018-06-08T00:21:49.506Z,19.90
2018-06-08T00:22:51.735Z,19.90
2018-06-08T00:23:53.970Z,19.80
2018-06-08T00:24:56.183Z,19.80
2018-06-08T00:25:58.462Z,19.80
2018-06-08T00:27:00.682Z,19.80
2018-06-08T00:28:02.916Z,19.80
2018-06-08T00:30:07.407Z,19.80
2018-06-08T00:31:09.625Z,19.80
2018-06-08T00:33:14.129Z,19.80
2018-06-08T00:34:16.330Z,19.90
2018-06-08T00:35:18.542Z,19.90
2018-06-08T00:36:20.813Z,19.90
2018-06-08T00:37:22.990Z,19.90
2018-06-08T00:38:25.210Z,19.90
2018-06-08T00:39:27.435Z,19.90
2018-06-08T00:40:29.686Z,19.80
2018-06-08T00:41:31.912Z,19.80
2018-06-08T00:42:34.200Z,19.90
2018-06-08T00:43:36.430Z,19.80
2018-06-08T00:44:38.670Z,19.80
2018-06-08T00:45:40.874Z,19.80
2018-06-08T00:46:43.099Z,19.80
2018-06-08T00:47:45.338Z,19.80
2018-06-08T00:49:49.832Z,19.80
2018-06-08T00:50:52.064Z,19.80
2018-06-08T00:51:54.278Z,19.80
2018-06-08T00:52:56.503Z,19.80
2018-06-08T00:53:58.818Z,19.80
2018-06-08T00:55:01.036Z,19.80
2018-06-08T00:56:03.257Z,19.80
2018-06-08T00:57:06.767Z,19.80
2018-06-08T00:58:08.972Z,19.80
2018-06-08T00:59:11.211Z,19.80
2018-06-08T01:00:13.474Z,19.80
2018-06-08T01:01:15.702Z,19.80
2018-06-08T01:02:17.938Z,19.70
2018-06-08T01:03:20.162Z,19.70
2018-06-08T01:05:31.316Z,19.70
2018-06-08T01:07:35.821Z,19.80
2018-06-08T01:08:38.050Z,19.70
2018-06-08T01:09:40.285Z,19.80
2018-06-08T01:10:42.512Z,19.80
2018-06-08T01:11:44.738Z,19.70
2018-06-08T01:12:46.973Z,19.70
2018-06-08T01:13:49.189Z,19.70
2018-06-08T01:14:51.429Z,19.80
2018-06-08T01:15:53.664Z,19.80
2018-06-08T01:16:55.944Z,19.80
2018-06-08T01:17:58.218Z,19.70
2018-06-08T01:19:00.436Z,19.80
2018-06-08T01:20:02.714Z,19.80
2018-06-08T01:21:04.935Z,19.70
2018-06-08T01:22:07.154Z,19.80
2018-06-08T01:23:09.606Z,19.80
2018-06-08T01:24:11.843Z,19.70
2018-06-08T01:25:14.090Z,19.80
2018-06-08T01:26:16.318Z,19.70
2018-06-08T01:27:18.538Z,19.70
2018-06-08T01:28:20.774Z,19.60
2018-06-08T01:29:22.998Z,19.80
2018-06-08T01:30:25.279Z,19.70
2018-06-08T01:31:27.547Z,19.70
2018-06-08T01:32:29.789Z,19.70
2018-06-08T01:33:32.009Z,19.70
2018-06-08T01:34:34.248Z,19.70
2018-06-08T01:35:36.446Z,19.70
2018-06-08T01:37:40.970Z,19.70
2018-06-08T01:39:52.126Z,19.70
2018-06-08T01:40:54.381Z,19.70
2018-06-08T01:41:56.605Z,19.70
2018-06-08T01:42:58.861Z,19.70
2018-06-08T01:44:01.083Z,19.60
2018-06-08T01:45:03.481Z,19.70
2018-06-08T01:46:05.697Z,19.60
2018-06-08T01:47:07.925Z,19.60
2018-06-08T01:48:10.166Z,19.60
2018-06-08T01:49:12.373Z,19.60
2018-06-08T01:51:16.817Z,19.60
2018-06-08T01:53:21.493Z,19.60
2018-06-08T01:54:23.776Z,19.60
2018-06-08T01:55:26.022Z,19.60
2018-06-08T01:56:28.542Z,19.50
2018-06-08T01:57:30.770Z,19.50
2018-06-08T01:58:32.974Z,19.50
2018-06-08T01:59:35.220Z,19.40
2018-06-08T02:00:37.479Z,19.30
2018-06-08T02:01:39.712Z,19.40
2018-06-08T02:02:41.923Z,19.40
2018-06-08T02:03:44.155Z,19.40
2018-06-08T02:04:46.441Z,19.40
2018-06-08T02:05:48.739Z,19.40
2018-06-08T02:06:50.966Z,19.40
2018-06-08T02:07:53.187Z,19.50
2018-06-08T02:08:55.411Z,19.40
2018-06-08T02:09:57.701Z,19.50
2018-06-08T02:10:59.901Z,19.50
2018-06-08T02:12:02.118Z,19.40
2018-06-08T02:13:04.355Z,19.40
2018-06-08T02:14:06.622Z,19.50
2018-06-08T02:16:11.134Z,19.40
2018-06-08T02:17:13.386Z,19.40
2018-06-08T02:19:20.462Z,19.40
2018-06-08T02:20:22.708Z,19.40
2018-06-08T02:21:24.959Z,19.40
2018-06-08T02:22:27.200Z,19.40
2018-06-08T02:23:30.086Z,19.40
2018-06-08T02:24:32.314Z,19.40
2018-06-08T02:25:34.537Z,19.40
2018-06-08T02:26:36.761Z,19.40
2018-06-08T02:27:39.013Z,19.40
2018-06-08T02:28:41.237Z,19.40
2018-06-08T02:30:45.691Z,19.40
2018-06-08T02:31:47.910Z,19.40
2018-06-08T02:32:50.121Z,19.50
2018-06-08T02:33:52.329Z,19.40
2018-06-08T02:34:54.554Z,19.40
2018-06-08T02:35:56.761Z,19.40
2018-06-08T02:36:58.995Z,19.30
2018-06-08T02:38:01.223Z,19.30
2018-06-08T02:39:06.214Z,19.30
2018-06-08T02:40:08.458Z,19.30
2018-06-08T02:41:10.665Z,19.30
2018-06-08T02:42:12.898Z,19.40
2018-06-08T02:43:15.105Z,19.30
2018-06-08T02:44:17.326Z,19.20
2018-06-08T02:45:19.540Z,19.20
2018-06-08T02:46:21.802Z,19.10
2018-06-08T02:47:24.024Z,19.20
2018-06-08T02:48:26.259Z,19.20
2018-06-08T02:49:28.474Z,19.10
2018-06-08T02:51:32.987Z,19.20
2018-06-08T02:52:35.259Z,19.20
2018-06-08T02:54:39.710Z,19.20
2018-06-08T02:55:41.975Z,19.10
2018-06-08T02:56:44.972Z,19.20
2018-06-08T02:57:47.195Z,19.20
2018-06-08T02:58:49.416Z,19.20
2018-06-08T02:59:51.628Z,19.10
2018-06-08T03:00:53.832Z,19.10
2018-06-08T03:02:58.301Z,19.10
2018-06-08T03:04:00.494Z,19.20
2018-06-08T03:05:02.769Z,19.20
2018-06-08T03:06:04.994Z,19.20
2018-06-08T03:07:07.207Z,19.20
2018-06-08T03:08:09.465Z,19.20
2018-06-08T03:09:11.710Z,19.20
2018-06-08T03:10:13.929Z,19.20
2018-06-08T03:11:16.302Z,19.20
2018-06-08T03:12:18.542Z,19.20
2018-06-08T03:13:20.745Z,19.10
2018-06-08T03:14:22.998Z,19.10
2018-06-08T03:15:25.214Z,19.10
2018-06-08T03:16:27.530Z,19.10
2018-06-08T03:17:29.753Z,19.00
2018-06-08T03:18:31.997Z,19.00
2018-06-08T03:19:34.207Z,19.00
2018-06-08T03:21:38.680Z,19.10
2018-06-08T03:22:40.879Z,19.10
2018-06-08T03:23:43.547Z,19.10
2018-06-08T03:24:45.763Z,19.10
2018-06-08T03:25:47.964Z,19.10
2018-06-08T03:26:50.190Z,19.20
2018-06-08T03:27:52.406Z,19.20
2018-06-08T03:28:54.621Z,19.10
2018-06-08T03:29:56.861Z,19.20
2018-06-08T03:32:01.338Z,19.10
2018-06-08T03:34:05.826Z,19.00
2018-06-08T03:35:08.059Z,19.00
2018-06-08T03:36:10.257Z,18.90
2018-06-08T03:37:12.534Z,18.90
2018-06-08T03:39:16.967Z,19.00
2018-06-08T03:40:19.174Z,19.00
2018-06-08T03:41:21.413Z,19.00
2018-06-08T03:42:23.630Z,19.00
2018-06-08T03:43:25.844Z,19.10
2018-06-08T03:44:28.070Z,19.00
2018-06-08T03:45:30.291Z,19.00
2018-06-08T03:46:32.506Z,19.00
2018-06-08T03:47:34.722Z,19.10
2018-06-08T03:48:36.982Z,19.00
2018-06-08T03:50:41.425Z,19.00
2018-06-08T03:51:43.658Z,19.00
2018-06-08T03:52:45.909Z,19.00
2018-06-08T03:53:48.120Z,19.00
2018-06-08T03:54:50.332Z,19.00
2018-06-08T03:55:52.545Z,19.00
2018-06-08T03:56:54.763Z,19.00
2018-06-08T03:57:56.985Z,19.00
2018-06-08T03:58:59.237Z,18.90
2018-06-08T04:00:01.485Z,18.90
2018-06-08T04:01:03.715Z,18.90
2018-06-08T04:02:05.954Z,18.90
2018-06-08T04:03:08.202Z,18.90
2018-06-08T04:04:10.411Z,18.90
2018-06-08T04:05:12.638Z,18.80
2018-06-08T04:06:21.589Z,18.80
2018-06-08T04:07:23.807Z,18.80
2018-06-08T04:08:26.046Z,18.80
2018-06-08T04:09:28.267Z,18.80
2018-06-08T04:10:30.490Z,18.80
2018-06-08T04:11:32.710Z,18.80
2018-06-08T04:12:34.930Z,18.80
2018-06-08T04:13:37.154Z,18.90
2018-06-08T04:14:39.370Z,18.90
2018-06-08T04:15:41.571Z,18.80
2018-06-08T04:16:43.823Z,18.90
2018-06-08T04:18:48.333Z,18.90
2018-06-08T04:19:50.620Z,18.90
2018-06-08T04:20:52.850Z,18.90
2018-06-08T04:21:55.079Z,18.80
2018-06-08T04:22:57.329Z,18.90
2018-06-08T04:23:59.552Z,18.80
2018-06-08T04:25:01.814Z,18.90
2018-06-08T04:26:04.062Z,18.90
2018-06-08T04:27:06.294Z,18.90
2018-06-08T04:28:08.494Z,18.90
2018-06-08T04:29:10.737Z,18.90
2018-06-08T04:30:12.948Z,18.90
2018-06-08T04:31:15.159Z,18.80
2018-06-08T04:32:17.411Z,18.80
2018-06-08T04:33:24.056Z,18.80
2018-06-08T04:34:28.562Z,18.80
2018-06-08T04:35:31.185Z,18.80
2018-06-08T04:36:33.382Z,18.80
2018-06-08T04:37:35.591Z,18.80
2018-06-08T04:38:37.991Z,18.80
2018-06-08T04:39:40.212Z,18.80
2018-06-08T04:40:42.433Z,18.80
2018-06-08T04:41:44.878Z,18.80
2018-06-08T04:42:53.857Z,18.80
2018-06-08T04:43:56.086Z,18.90
2018-06-08T04:44:58.297Z,18.90
2018-06-08T04:46:00.518Z,18.90
2018-06-08T04:48:11.641Z,19.00
2018-06-08T04:49:13.875Z,19.00
2018-06-08T04:50:16.162Z,19.00
2018-06-08T04:51:18.807Z,19.10
2018-06-08T04:52:21.036Z,19.10
2018-06-08T04:53:23.283Z,19.10
2018-06-08T04:54:25.484Z,19.20
2018-06-08T04:55:27.749Z,19.20
2018-06-08T04:56:29.962Z,19.20
2018-06-08T04:57:32.209Z,19.20
2018-06-08T04:58:34.438Z,19.30
2018-06-08T04:59:36.634Z,19.30
2018-06-08T05:00:38.874Z,19.30
2018-06-08T05:01:41.117Z,19.30
2018-06-08T05:02:43.330Z,19.30
2018-06-08T05:03:45.580Z,19.30
2018-06-08T05:04:47.794Z,19.30
2018-06-08T05:05:50.069Z,19.40
2018-06-08T05:06:52.311Z,19.30
2018-06-08T05:07:54.528Z,19.30
2018-06-08T05:08:56.843Z,19.30
2018-06-08T05:09:59.053Z,19.30
2018-06-08T05:11:01.314Z,19.20
2018-06-08T05:12:03.631Z,19.30
2018-06-08T05:13:05.878Z,19.30
2018-06-08T05:14:08.099Z,19.30
2018-06-08T05:15:10.316Z,19.40
2018-06-08T05:16:12.558Z,19.40
2018-06-08T05:17:14.770Z,19.40
2018-06-08T05:18:16.998Z,19.50
2018-06-08T05:19:19.237Z,19.50
2018-06-08T05:20:21.446Z,19.50
2018-06-08T05:21:23.710Z,19.50
2018-06-08T05:22:26.886Z,19.50
2018-06-08T05:23:29.117Z,19.50
2018-06-08T05:24:31.338Z,19.50
2018-06-08T05:25:33.549Z,19.50
2018-06-08T05:26:35.810Z,19.50
2018-06-08T05:27:38.052Z,19.60
2018-06-08T05:28:40.277Z,19.60
2018-06-08T05:29:42.502Z,19.60
2018-06-08T05:30:44.725Z,19.60
2018-06-08T05:31:46.946Z,19.70
2018-06-08T05:32:49.142Z,19.70
2018-06-08T05:33:51.370Z,19.70
2018-06-08T05:34:53.643Z,19.70
2018-06-08T05:35:55.904Z,19.80
2018-06-08T05:38:00.379Z,19.80
2018-06-08T05:39:04.934Z,19.80
2018-06-08T05:40:07.193Z,19.90
2018-06-08T05:41:09.405Z,19.90
2018-06-08T05:42:11.642Z,20.00
2018-06-08T05:43:13.849Z,20.00
2018-06-08T05:44:16.075Z,20.00
2018-06-08T05:45:18.300Z,20.10
2018-06-08T05:46:20.529Z,20.20
2018-06-08T05:47:22.774Z,20.20
2018-06-08T05:48:25.069Z,20.30
2018-06-08T05:49:27.277Z,20.30
2018-06-08T05:50:29.525Z,20.30
2018-06-08T05:51:31.787Z,20.30
2018-06-08T05:52:34.035Z,20.40
2018-06-08T05:53:36.256Z,20.40
2018-06-08T05:54:38.602Z,20.40
2018-06-08T05:55:40.864Z,20.50
2018-06-08T05:56:43.103Z,20.50
2018-06-08T05:57:45.343Z,20.50
2018-06-08T05:58:47.549Z,20.60
2018-06-08T05:59:49.847Z,20.50
2018-06-08T06:00:52.152Z,20.60
2018-06-08T06:01:54.426Z,20.60
2018-06-08T06:02:56.682Z,20.60
2018-06-08T06:03:58.930Z,20.70
2018-06-08T06:05:01.207Z,20.70
2018-06-08T06:06:03.515Z,20.80
2018-06-08T06:07:05.797Z,20.80
2018-06-08T06:08:08.047Z,20.90
2018-06-08T06:09:10.298Z,21.00
2018-06-08T06:10:12.580Z,21.10
2018-06-08T06:11:14.930Z,21.20
2018-06-08T06:12:17.164Z,21.20
2018-06-08T06:13:19.418Z,21.30
2018-06-08T06:14:21.713Z,21.30
2018-06-08T06:15:23.942Z,21.40
2018-06-08T06:16:26.223Z,21.50
2018-06-08T06:17:28.464Z,21.60
2018-06-08T06:18:30.764Z,21.60
2018-06-08T06:19:32.984Z,21.70
2018-06-08T06:20:35.214Z,21.70
2018-06-08T06:21:37.436Z,21.70
2018-06-08T06:23:41.912Z,21.90
2018-06-08T06:24:44.167Z,22.00
2018-06-08T06:25:46.604Z,22.00
2018-06-08T06:26:48.840Z,22.00
2018-06-08T06:27:51.074Z,22.00
2018-06-08T06:28:53.363Z,22.00
2018-06-08T06:30:57.897Z,22.00
2018-06-08T06:32:00.137Z,21.90
2018-06-08T06:34:04.658Z,21.90
2018-06-08T06:35:06.922Z,21.90
2018-06-08T06:37:11.430Z,21.90
2018-06-08T06:38:13.651Z,22.00
2018-06-08T06:39:15.941Z,22.10
2018-06-08T06:40:18.236Z,22.10
2018-06-08T06:42:46.087Z,22.20
2018-06-08T06:43:48.322Z,22.30
2018-06-08T06:44:50.608Z,22.40
2018-06-08T06:45:52.846Z,22.40
2018-06-08T06:46:55.119Z,22.40
2018-06-08T06:47:57.450Z,22.50
2018-06-08T06:48:59.690Z,22.50
2018-06-08T06:50:02.010Z,22.40
2018-06-08T06:51:04.256Z,22.40
2018-06-08T06:52:06.604Z,22.50
2018-06-08T06:53:08.862Z,22.50
2018-06-08T06:54:11.122Z,22.40
2018-06-08T06:55:13.359Z,22.60
2018-06-08T06:56:15.604Z,22.50
2018-06-08T06:57:17.868Z,22.50
2018-06-08T06:58:20.124Z,22.50
2018-06-08T06:59:22.368Z,22.60
2018-06-08T07:00:24.597Z,22.60
2018-06-08T07:01:26.830Z,22.70
2018-06-08T07:02:29.072Z,22.70
2018-06-08T07:03:31.347Z,22.60
2018-06-08T07:04:34.091Z,22.60
2018-06-08T07:05:36.350Z,22.60
2018-06-08T07:06:38.623Z,22.70
2018-06-08T07:08:43.116Z,22.80
2018-06-08T07:09:45.338Z,22.80
2018-06-08T07:10:47.580Z,22.90
2018-06-08T07:11:49.844Z,22.90
2018-06-08T07:12:52.071Z,22.90
2018-06-08T07:13:54.288Z,23.00
2018-06-08T07:14:56.585Z,23.00
2018-06-08T07:17:01.114Z,23.00
2018-06-08T07:18:03.376Z,23.00
2018-06-08T07:19:05.630Z,23.10
2018-06-08T07:20:07.930Z,23.10
2018-06-08T07:21:10.186Z,23.10
2018-06-08T07:22:12.470Z,23.20
2018-06-08T07:23:14.689Z,23.20
2018-06-08T07:24:16.917Z,23.30
2018-06-08T07:25:19.251Z,23.30
2018-06-08T07:26:21.494Z,23.30
2018-06-08T07:27:23.743Z,23.40
2018-06-08T07:28:25.983Z,23.40
2018-06-08T07:29:28.241Z,23.40
2018-06-08T07:30:30.483Z,23.50
2018-06-08T07:31:32.831Z,23.50
2018-06-08T07:32:35.042Z,23.50
2018-06-08T07:33:37.310Z,23.50
2018-06-08T07:34:39.559Z,23.50
2018-06-08T07:35:41.783Z,23.50
2018-06-08T07:36:44.027Z,23.50
2018-06-08T07:37:46.271Z,23.40
2018-06-08T07:38:48.562Z,23.30
2018-06-08T07:39:50.864Z,23.30
2018-06-08T07:40:53.078Z,23.20
2018-06-08T07:41:55.350Z,23.30
2018-06-08T07:42:57.619Z,23.30
2018-06-08T07:43:59.858Z,23.30
2018-06-08T07:45:02.153Z,23.30
2018-06-08T07:46:07.293Z,23.40
2018-06-08T07:47:09.574Z,23.40
2018-06-08T07:49:14.333Z,23.50
2018-06-08T07:50:16.615Z,23.50
2018-06-08T07:52:21.146Z,23.60
2018-06-08T07:53:23.416Z,23.60
2018-06-08T07:55:27.967Z,23.70
2018-06-08T07:56:30.203Z,23.70
2018-06-08T07:57:32.458Z,23.70
2018-06-08T07:58:34.666Z,23.70
2018-06-08T07:59:36.910Z,23.70
2018-06-08T08:00:39.122Z,23.70
2018-06-08T08:01:41.357Z,23.70
2018-06-08T08:02:43.582Z,23.70
2018-06-08T08:03:45.806Z,23.60
2018-06-08T08:04:48.039Z,23.60
2018-06-08T08:05:50.278Z,23.70
2018-06-08T08:06:52.584Z,23.70
2018-06-08T08:07:54.829Z,23.70
2018-06-08T08:08:57.110Z,23.80
2018-06-08T08:09:59.318Z,23.80
2018-06-08T08:11:01.573Z,23.90
2018-06-08T08:12:03.827Z,24.00
2018-06-08T08:13:06.142Z,24.00
2018-06-08T08:14:08.386Z,24.10
2018-06-08T08:15:10.639Z,24.10
2018-06-08T08:16:12.879Z,24.20
2018-06-08T08:17:15.127Z,24.20
2018-06-08T08:18:17.385Z,24.20
2018-06-08T08:20:21.894Z,24.20
2018-06-08T08:21:24.138Z,24.30
2018-06-08T08:22:26.468Z,24.30
2018-06-08T08:23:28.731Z,24.30
2018-06-08T08:24:31.017Z,24.40
2018-06-08T08:25:33.262Z,24.40
2018-06-08T08:26:35.674Z,24.40
2018-06-08T08:28:40.212Z,24.40
2018-06-08T08:29:42.477Z,24.50
2018-06-08T08:30:44.722Z,24.50
2018-06-08T08:31:46.999Z,24.50
2018-06-08T08:32:49.256Z,24.50
2018-06-08T08:33:51.483Z,24.60
2018-06-08T08:34:53.696Z,24.70
2018-06-08T08:35:55.954Z,24.70
2018-06-08T08:36:58.184Z,24.70
2018-06-08T08:38:00.434Z,24.70
2018-06-08T08:39:05.239Z,24.70
2018-06-08T08:40:07.767Z,24.80
2018-06-08T08:41:10.056Z,24.90
2018-06-08T08:42:12.325Z,24.90
2018-06-08T08:44:16.838Z,24.90
2018-06-08T08:45:19.147Z,24.90
2018-06-08T08:46:21.415Z,25.00
2018-06-08T08:47:23.719Z,25.00
2018-06-08T08:48:26.067Z,25.00
2018-06-08T08:49:28.305Z,25.10
2018-06-08T08:50:30.559Z,25.10
2018-06-08T08:51:32.872Z,25.00
2018-06-08T08:52:35.072Z,25.00
2018-06-08T08:53:37.344Z,25.00
2018-06-08T08:54:39.550Z,25.00
2018-06-08T08:55:41.814Z,25.00
2018-06-08T08:57:46.423Z,25.00
2018-06-08T08:58:48.692Z,25.10
2018-06-08T08:59:50.977Z,25.10
2018-06-08T09:00:53.259Z,25.00
2018-06-08T09:01:55.565Z,25.10
2018-06-08T09:02:57.849Z,25.10
2018-06-08T09:04:00.095Z,25.10
2018-06-08T09:05:02.378Z,25.10
2018-06-08T09:06:04.814Z,25.10
2018-06-08T09:07:07.111Z,25.10
2018-06-08T09:09:11.723Z,25.20
2018-06-08T09:10:13.988Z,25.20
2018-06-08T09:11:16.338Z,25.20
2018-06-08T09:12:18.633Z,25.20
2018-06-08T09:13:20.895Z,25.20
2018-06-08T09:14:23.111Z,25.20
2018-06-08T09:16:27.576Z,25.20
2018-06-08T09:17:29.815Z,25.20
2018-06-08T09:18:32.028Z,25.20
2018-06-08T09:19:34.278Z,25.10
2018-06-08T09:20:36.502Z,25.10
2018-06-08T09:21:38.771Z,25.10
2018-06-08T09:22:40.996Z,25.10
2018-06-08T09:23:43.207Z,25.20
2018-06-08T09:24:45.476Z,25.20
2018-06-08T09:25:47.706Z,25.20
2018-06-08T09:26:49.954Z,25.20
2018-06-08T09:27:52.179Z,25.20
2018-06-08T09:28:54.389Z,25.20
2018-06-08T09:29:56.662Z,25.20
2018-06-08T09:30:58.910Z,25.10
2018-06-08T09:32:01.122Z,25.10
2018-06-08T09:33:03.410Z,25.20
2018-06-08T09:34:05.717Z,25.10
2018-06-08T09:35:07.977Z,25.10
2018-06-08T09:36:10.298Z,25.10
2018-06-08T09:37:12.561Z,25.10
2018-06-08T09:38:14.827Z,25.10
2018-06-08T09:39:17.074Z,25.10
2018-06-08T09:40:19.337Z,25.20
2018-06-08T09:41:21.549Z,25.20
2018-06-08T09:42:23.788Z,25.20
2018-06-08T09:43:26.051Z,25.20
2018-06-08T09:44:28.332Z,25.20
2018-06-08T09:45:30.598Z,25.20
2018-06-08T09:46:32.827Z,25.20
2018-06-08T09:47:35.064Z,25.30
2018-06-08T09:48:37.298Z,25.30
2018-06-08T09:49:39.617Z,25.40
2018-06-08T09:50:41.829Z,25.40
2018-06-08T09:51:44.057Z,25.50
2018-06-08T09:52:46.282Z,25.60
2018-06-08T09:53:48.478Z,25.60
2018-06-08T09:54:50.752Z,25.60
2018-06-08T09:55:52.927Z,25.70
2018-06-08T09:56:55.193Z,25.60
2018-06-08T09:57:57.551Z,25.60
2018-06-08T09:58:59.754Z,25.60
2018-06-08T10:01:04.284Z,25.70
2018-06-08T10:02:06.507Z,25.70
2018-06-08T10:03:09.034Z,25.80
2018-06-08T10:04:11.267Z,25.80
2018-06-08T10:05:13.572Z,25.90
2018-06-08T10:06:15.828Z,25.90
2018-06-08T10:07:18.088Z,25.90
2018-06-08T10:08:20.302Z,26.10
2018-06-08T10:09:22.595Z,26.00
2018-06-08T10:10:24.856Z,26.10
2018-06-08T10:11:27.086Z,26.10
2018-06-08T10:12:29.331Z,26.10
2018-06-08T10:13:31.560Z,26.10
2018-06-08T10:14:33.768Z,26.20
2018-06-08T10:17:40.532Z,26.30
2018-06-08T10:18:42.766Z,26.30
2018-06-08T10:19:45.025Z,26.40
2018-06-08T10:20:47.288Z,26.40
2018-06-08T10:21:49.567Z,26.40
2018-06-08T10:22:51.788Z,26.40
2018-06-08T10:23:54.006Z,26.40
2018-06-08T10:24:56.290Z,26.40
2018-06-08T10:27:00.838Z,26.40
2018-06-08T10:28:03.085Z,26.50
2018-06-08T10:29:05.346Z,26.40
2018-06-08T10:30:07.559Z,26.40
2018-06-08T10:32:12.042Z,26.20
2018-06-08T10:33:14.314Z,26.20
2018-06-08T10:34:16.543Z,26.20
2018-06-08T10:35:18.758Z,26.10
2018-06-08T10:37:23.268Z,26.10
2018-06-08T10:38:25.590Z,26.20
2018-06-08T10:39:27.789Z,26.30
2018-06-08T10:40:30.031Z,26.30
2018-06-08T10:41:32.266Z,26.30
2018-06-08T10:42:41.248Z,26.30
2018-06-08T10:43:43.565Z,26.40
2018-06-08T10:44:45.892Z,26.40
2018-06-08T10:45:48.153Z,26.50
2018-06-08T10:47:53.221Z,26.50
2018-06-08T10:48:55.538Z,26.60
2018-06-08T10:49:57.807Z,26.60
2018-06-08T10:51:00.062Z,26.70
2018-06-08T10:52:02.298Z,26.70
2018-06-08T10:53:04.732Z,26.80
2018-06-08T10:54:06.955Z,26.90
2018-06-08T10:55:09.206Z,27.00
2018-06-08T10:56:11.430Z,26.90
2018-06-08T10:57:13.851Z,27.00
2018-06-08T10:58:16.094Z,27.00
2018-06-08T10:59:18.349Z,27.10
2018-06-08T11:00:20.622Z,27.10
2018-06-08T11:01:22.889Z,27.10
2018-06-08T11:02:25.195Z,27.20
2018-06-08T11:03:27.439Z,27.20
2018-06-08T11:04:29.663Z,27.20
2018-06-08T11:05:31.907Z,27.20
2018-06-08T11:06:34.162Z,27.20
2018-06-08T11:07:36.468Z,27.20
2018-06-08T11:08:38.686Z,27.20
2018-06-08T11:09:40.912Z,27.20
2018-06-08T11:10:43.154Z,27.30
2018-06-08T11:11:45.394Z,27.30
2018-06-08T11:12:47.634Z,27.30
2018-06-08T11:13:49.889Z,27.30
2018-06-08T11:14:52.171Z,27.40
2018-06-08T11:15:54.462Z,27.20
2018-06-08T11:16:56.757Z,27.40
2018-06-08T11:17:58.982Z,27.40
2018-06-08T11:19:01.206Z,27.50
2018-06-08T11:20:03.487Z,27.50
2018-06-08T11:21:05.703Z,27.60
2018-06-08T11:22:07.979Z,27.60
2018-06-08T11:23:10.296Z,27.70
2018-06-08T11:24:12.550Z,27.70
2018-06-08T11:25:14.798Z,27.70
2018-06-08T11:26:17.074Z,27.80
2018-06-08T11:27:19.290Z,27.80
2018-06-08T11:28:21.533Z,27.90
2018-06-08T11:29:23.757Z,27.90
2018-06-08T11:31:28.267Z,28.00
2018-06-08T11:32:30.573Z,28.10
2018-06-08T11:33:32.809Z,28.10
2018-06-08T11:34:35.055Z,28.10
2018-06-08T11:35:37.370Z,28.20
2018-06-08T11:36:39.659Z,28.20
2018-06-08T11:37:42.020Z,28.20
2018-06-08T11:39:46.721Z,28.30
2018-06-08T11:40:48.923Z,28.30
2018-06-08T11:41:51.166Z,28.30
2018-06-08T11:43:55.666Z,28.40
2018-06-08T11:44:57.888Z,28.50
2018-06-08T11:46:00.146Z,28.50
2018-06-08T11:47:02.414Z,28.60
2018-06-08T11:48:04.678Z,28.60
2018-06-08T11:49:06.941Z,28.50
2018-06-08T11:50:09.190Z,28.40
2018-06-08T11:51:11.398Z,28.50
2018-06-08T11:52:13.617Z,28.50
2018-06-08T11:53:15.884Z,28.50
2018-06-08T11:54:18.091Z,28.60
2018-06-08T11:55:20.347Z,28.50
2018-06-08T11:57:24.879Z,28.60
2018-06-08T11:58:27.170Z,28.70
2018-06-08T11:59:29.419Z,28.70
2018-06-08T12:00:31.660Z,28.70
2018-06-08T12:01:33.899Z,28.60
2018-06-08T12:03:38.408Z,28.50
2018-06-08T12:04:40.623Z,28.40
2018-06-08T12:05:42.848Z,28.30
2018-06-08T12:06:45.147Z,28.30
2018-06-08T12:07:47.465Z,28.40
2018-06-08T12:09:51.935Z,28.50
2018-06-08T12:10:54.276Z,28.50
2018-06-08T12:11:56.516Z,28.50
2018-06-08T12:12:58.844Z,28.50
2018-06-08T12:14:01.130Z,28.50
2018-06-08T12:15:03.431Z,28.60
2018-06-08T12:16:05.722Z,28.60
2018-06-08T12:17:07.997Z,28.60
2018-06-08T12:18:10.188Z,28.60
2018-06-08T12:19:12.725Z,28.70
2018-06-08T12:21:17.767Z,28.90
2018-06-08T12:22:20.104Z,29.00
2018-06-08T12:23:22.347Z,29.00
2018-06-08T12:24:24.581Z,29.00
2018-06-08T12:25:26.891Z,29.00
2018-06-08T12:26:29.167Z,29.00
2018-06-08T12:27:31.450Z,29.00
2018-06-08T12:28:33.791Z,29.00
2018-06-08T12:29:36.056Z,29.10
2018-06-08T12:30:38.342Z,29.20
2018-06-08T12:31:40.582Z,29.10
2018-06-08T12:32:42.927Z,29.40
2018-06-08T12:33:45.267Z,29.50
2018-06-08T12:34:47.546Z,29.60
2018-06-08T12:35:49.818Z,29.60
2018-06-08T12:36:52.127Z,29.70
2018-06-08T12:37:54.471Z,29.70
2018-06-08T12:38:56.712Z,29.70
2018-06-08T12:39:58.968Z,29.80
2018-06-08T12:41:01.419Z,29.90
2018-06-08T12:42:03.764Z,30.00
2018-06-08T12:43:06.086Z,30.10
2018-06-08T12:44:08.576Z,30.10
2018-06-08T12:45:10.814Z,30.20
2018-06-08T12:46:13.294Z,30.30
2018-06-08T12:47:15.779Z,30.30
2018-06-08T12:48:18.113Z,30.30
2018-06-08T12:49:20.410Z,30.30
2018-06-08T12:51:25.042Z,30.30
2018-06-08T12:52:27.300Z,30.30
2018-06-08T12:53:29.867Z,30.20
2018-06-08T12:54:32.242Z,30.20
2018-06-08T12:55:34.394Z,30.10
2018-06-08T12:56:36.665Z,30.10
2018-06-08T12:57:38.973Z,30.10
2018-06-08T12:58:41.251Z,30.10
2018-06-08T12:59:43.498Z,30.10
2018-06-08T13:00:45.784Z,30.10
2018-06-08T13:02:50.319Z,30.30
2018-06-08T13:03:52.593Z,30.40
2018-06-08T13:04:54.866Z,30.50
2018-06-08T13:06:59.483Z,30.70
2018-06-08T13:08:01.770Z,30.80
2018-06-08T13:09:06.271Z,30.90
2018-06-08T13:10:08.588Z,30.90
2018-06-08T13:12:13.195Z,31.10
2018-06-08T13:13:15.524Z,31.10
2018-06-08T13:14:17.836Z,31.20
2018-06-08T13:15:20.138Z,31.30
2018-06-08T13:16:22.697Z,31.30
2018-06-08T13:17:24.988Z,31.40
2018-06-08T13:18:27.410Z,31.40
2018-06-08T13:19:29.727Z,31.40
2018-06-08T13:20:32.020Z,31.40
2018-06-08T13:21:34.590Z,31.40
2018-06-08T13:22:36.899Z,31.40
2018-06-08T13:23:39.176Z,31.40
2018-06-08T13:24:41.506Z,31.50
2018-06-08T13:25:43.864Z,31.50
2018-06-08T13:26:46.197Z,31.50
2018-06-08T13:27:48.446Z,31.50
2018-06-08T13:28:50.785Z,31.50
2018-06-08T13:30:55.366Z,31.30
2018-06-08T13:31:57.655Z,31.30
2018-06-08T13:32:59.952Z,31.40
2018-06-08T13:35:04.651Z,31.40
2018-06-08T13:37:15.783Z,31.40
2018-06-08T13:38:18.046Z,31.40
2018-06-08T13:39:20.302Z,31.50
2018-06-08T13:40:22.575Z,31.50
2018-06-08T13:41:24.833Z,31.50
2018-06-08T13:42:27.067Z,31.50
2018-06-08T13:43:29.296Z,31.50
2018-06-08T13:44:32.346Z,31.50
2018-06-08T13:45:34.618Z,31.50
2018-06-08T13:46:44.430Z,31.40
2018-06-08T13:47:46.680Z,31.40
2018-06-08T13:48:48.910Z,31.50
2018-06-08T13:49:51.206Z,31.50
2018-06-08T13:50:53.473Z,31.50
2018-06-08T13:51:55.751Z,31.50
2018-06-08T13:52:57.999Z,31.50
2018-06-08T13:54:00.303Z,31.50
2018-06-08T13:55:02.616Z,31.50
2018-06-08T13:56:04.843Z,31.60
2018-06-08T13:57:07.069Z,31.50
2018-06-08T13:58:09.894Z,31.50
2018-06-08T13:59:12.308Z,31.40
2018-06-08T14:00:14.579Z,31.40
2018-06-08T14:01:16.844Z,31.30
2018-06-08T14:02:19.171Z,31.30
2018-06-08T14:03:21.478Z,31.30
2018-06-08T14:04:23.743Z,31.30
2018-06-08T14:05:25.994Z,31.10
2018-06-08T14:06:28.214Z,31.10
2018-06-08T14:07:30.474Z,31.10
2018-06-08T14:08:32.850Z,31.10
2018-06-08T14:09:35.107Z,31.10
2018-06-08T14:10:37.455Z,31.10
2018-06-08T14:11:39.727Z,31.10
2018-06-08T14:12:41.989Z,31.10
2018-06-08T14:14:46.534Z,31.00
2018-06-08T14:15:48.783Z,31.10
2018-06-08T14:16:51.043Z,31.00
2018-06-08T14:17:53.321Z,30.90
2018-06-08T14:18:55.574Z,30.90
2018-06-08T14:21:00.033Z,30.70
2018-06-08T14:22:02.325Z,30.70
2018-06-08T14:23:04.677Z,30.60
2018-06-08T14:24:06.953Z,30.60
2018-06-08T14:25:09.197Z,30.60
2018-06-08T14:26:11.436Z,30.60
2018-06-08T14:27:13.887Z,30.60
2018-06-08T14:28:16.488Z,30.50